createdAt,value
2023-04-17T00:00:44.106Z,546.00
2023-04-17T00:01:44.174Z,542.00
2023-04-17T00:02:44.330Z,540.00
2023-04-17T00:03:44.462Z,540.00
2023-04-17T00:04:44.474Z,541.00
2023-04-17T00:05:44.438Z,540.00
2023-04-17T00:06:44.474Z,539.00
2023-04-17T00:07:44.513Z,540.00
2023-04-17T00:08:44.599Z,544.00
2023-04-17T00:09:44.678Z,546.00
2023-04-17T00:10:48.988Z,547.00
2023-04-17T00:11:45.710Z,547.00
2023-04-17T00:12:44.740Z,549.00
2023-04-17T00:13:44.704Z,549.00
2023-04-17T00:14:44.696Z,549.00
2023-04-17T00:15:44.714Z,549.00
2023-04-17T00:16:44.730Z,550.00
2023-04-17T00:17:44.741Z,550.00
2023-04-17T00:18:44.691Z,551.00
2023-04-17T00:19:44.692Z,551.00
2023-04-17T00:20:44.723Z,551.00
2023-04-17T00:21:44.765Z,554.00
2023-04-17T00:22:44.824Z,557.00
2023-04-17T00:23:44.929Z,556.00
2023-04-17T00:24:44.978Z,556.00
2023-04-17T00:25:45.053Z,556.00
2023-04-17T00:26:45.081Z,555.00
2023-04-17T00:27:45.194Z,553.00
2023-04-17T00:28:45.234Z,551.00
2023-04-17T00:29:45.278Z,552.00
2023-04-17T00:30:45.346Z,553.00
2023-04-17T00:31:45.424Z,553.00
2023-04-17T00:32:45.440Z,550.00
2023-04-17T00:33:45.507Z,552.00
2023-04-17T00:34:45.589Z,548.00
2023-04-17T00:35:45.636Z,547.00
2023-04-17T00:36:45.677Z,548.00
2023-04-17T00:37:45.739Z,550.00
2023-04-17T00:38:45.788Z,552.00
2023-04-17T00:39:45.845Z,555.00
2023-04-17T00:40:45.901Z,557.00
2023-04-17T00:41:45.954Z,559.00
2023-04-17T00:42:46.034Z,560.00
2023-04-17T00:43:46.078Z,557.00
2023-04-17T00:44:46.163Z,555.00
2023-04-17T00:45:46.257Z,554.00
2023-04-17T00:46:46.253Z,554.00
2023-04-17T00:47:46.382Z,551.00
2023-04-17T00:48:46.355Z,552.00
2023-04-17T00:49:46.420Z,553.00
2023-04-17T00:50:46.491Z,556.00
2023-04-17T00:51:46.550Z,557.00
2023-04-17T00:52:46.612Z,557.00
2023-04-17T00:53:46.683Z,555.00
2023-04-17T00:54:46.692Z,553.00
2023-04-17T00:55:46.733Z,553.00
2023-04-17T00:56:46.797Z,554.00
2023-04-17T00:57:46.861Z,554.00
2023-04-17T00:58:46.906Z,553.00
2023-04-17T00:59:46.981Z,553.00
2023-04-17T01:00:47.061Z,552.00
2023-04-17T01:01:47.096Z,549.00
2023-04-17T01:02:47.358Z,547.00
2023-04-17T01:03:47.350Z,549.00
2023-04-17T01:04:47.292Z,549.00
2023-04-17T01:05:47.316Z,549.00
2023-04-17T01:06:47.414Z,553.00
2023-04-17T01:07:47.479Z,553.00
2023-04-17T01:08:47.542Z,553.00
2023-04-17T01:09:47.622Z,554.00
2023-04-17T01:10:47.647Z,553.00
2023-04-17T01:11:47.736Z,555.00
2023-04-17T01:12:47.785Z,555.00
2023-04-17T01:13:47.822Z,554.00
2023-04-17T01:14:47.905Z,553.00
2023-04-17T01:15:47.956Z,553.00
2023-04-17T01:16:48.034Z,553.00
2023-04-17T01:17:48.192Z,554.00
2023-04-17T01:18:48.157Z,553.00
2023-04-17T01:19:48.223Z,554.00
2023-04-17T01:20:48.261Z,555.00
2023-04-17T01:21:48.355Z,556.00
2023-04-17T01:22:48.349Z,553.00
2023-04-17T01:23:48.411Z,553.00
2023-04-17T01:24:48.438Z,558.00
2023-04-17T01:25:48.498Z,557.00
2023-04-17T01:26:48.562Z,556.00
2023-04-17T01:27:48.602Z,556.00
2023-04-17T01:28:48.638Z,555.00
2023-04-17T01:29:48.683Z,558.00
2023-04-17T01:30:48.777Z,555.00
2023-04-17T01:31:48.849Z,554.00
2023-04-17T01:32:48.991Z,553.00
2023-04-17T01:33:48.927Z,551.00
2023-04-17T01:34:49.008Z,549.00
2023-04-17T01:35:49.065Z,551.00
2023-04-17T01:36:49.131Z,553.00
2023-04-17T01:37:49.172Z,552.00
2023-04-17T01:38:49.246Z,552.00
2023-04-17T01:39:49.278Z,553.00
2023-04-17T01:40:49.341Z,555.00
2023-04-17T01:41:49.418Z,558.00
2023-04-17T01:42:49.487Z,559.00
2023-04-17T01:43:49.544Z,559.00
2023-04-17T01:44:49.572Z,560.00
2023-04-17T01:45:49.661Z,558.00
2023-04-17T01:46:49.690Z,555.00
2023-04-17T01:47:49.878Z,554.00
2023-04-17T01:48:49.820Z,556.00
2023-04-17T01:49:49.899Z,556.00
2023-04-17T01:50:49.931Z,556.00
2023-04-17T01:51:49.982Z,556.00
2023-04-17T01:52:50.074Z,557.00
2023-04-17T01:53:50.120Z,557.00
2023-04-17T01:54:50.210Z,558.00
2023-04-17T01:55:50.217Z,558.00
2023-04-17T01:56:50.262Z,556.00
2023-04-17T01:57:50.288Z,556.00
2023-04-17T01:58:50.348Z,555.00
2023-04-17T01:59:50.384Z,553.00
2023-04-17T02:00:50.425Z,553.00
2023-04-17T02:01:50.516Z,556.00
2023-04-17T02:02:51.438Z,554.00
2023-04-17T02:03:50.695Z,555.00
2023-04-17T02:04:50.571Z,555.00
2023-04-17T02:05:50.631Z,555.00
2023-04-17T02:06:50.676Z,553.00
2023-04-17T02:07:50.722Z,554.00
2023-04-17T02:08:50.728Z,552.00
2023-04-17T02:09:50.794Z,557.00
2023-04-17T02:10:50.855Z,557.00
2023-04-17T02:11:50.875Z,559.00
2023-04-17T02:12:50.897Z,558.00
2023-04-17T02:13:50.876Z,560.00
2023-04-17T02:14:50.928Z,557.00
2023-04-17T02:15:51.008Z,555.00
2023-04-17T02:16:51.023Z,552.00
2023-04-17T02:17:51.139Z,552.00
2023-04-17T02:18:51.151Z,552.00
2023-04-17T02:19:51.168Z,555.00
2023-04-17T02:20:51.213Z,558.00
2023-04-17T02:21:51.203Z,558.00
2023-04-17T02:22:51.244Z,559.00
2023-04-17T02:23:51.271Z,559.00
2023-04-17T02:24:51.317Z,559.00
2023-04-17T02:25:51.340Z,559.00
2023-04-17T02:26:51.341Z,560.00
2023-04-17T02:27:51.310Z,560.00
2023-04-17T02:28:51.309Z,560.00
2023-04-17T02:29:51.369Z,559.00
2023-04-17T02:30:51.406Z,556.00
2023-04-17T02:31:51.510Z,554.00
2023-04-17T02:32:51.511Z,555.00
2023-04-17T02:33:51.528Z,557.00
2023-04-17T02:34:51.598Z,555.00
2023-04-17T02:35:51.651Z,555.00
2023-04-17T02:36:51.637Z,555.00
2023-04-17T02:37:51.727Z,555.00
2023-04-17T02:38:51.764Z,555.00
2023-04-17T02:39:51.754Z,556.00
2023-04-17T02:40:51.790Z,557.00
2023-04-17T02:41:51.848Z,559.00
2023-04-17T02:42:51.907Z,561.00
2023-04-17T02:43:51.967Z,564.00
2023-04-17T02:44:52.009Z,565.00
2023-04-17T02:45:52.048Z,565.00
2023-04-17T02:46:52.066Z,565.00
2023-04-17T02:47:52.151Z,563.00
2023-04-17T02:48:52.100Z,563.00
2023-04-17T02:49:52.142Z,563.00
2023-04-17T02:50:52.185Z,568.00
2023-04-17T02:51:52.223Z,566.00
2023-04-17T02:52:52.248Z,563.00
2023-04-17T02:53:52.274Z,562.00
2023-04-17T02:54:52.327Z,563.00
2023-04-17T02:55:52.352Z,562.00
2023-04-17T02:56:52.323Z,561.00
2023-04-17T02:57:52.330Z,562.00
2023-04-17T02:58:52.348Z,564.00
2023-04-17T02:59:52.330Z,566.00
2023-04-17T03:00:52.443Z,566.00
2023-04-17T03:01:52.478Z,565.00
2023-04-17T03:02:52.603Z,564.00
2023-04-17T03:03:52.904Z,566.00
2023-04-17T03:04:52.547Z,566.00
2023-04-17T03:05:52.584Z,566.00
2023-04-17T03:06:52.643Z,564.00
2023-04-17T03:07:52.658Z,563.00
2023-04-17T03:08:52.635Z,561.00
2023-04-17T03:09:52.685Z,561.00
2023-04-17T03:10:52.697Z,562.00
2023-04-17T03:11:52.706Z,562.00
2023-04-17T03:12:52.738Z,562.00
2023-04-17T03:13:52.772Z,563.00
2023-04-17T03:14:52.797Z,563.00
2023-04-17T03:15:52.830Z,563.00
2023-04-17T03:16:53.004Z,562.00
2023-04-17T03:17:52.972Z,564.00
2023-04-17T03:18:52.945Z,563.00
2023-04-17T03:19:52.971Z,564.00
2023-04-17T03:20:52.990Z,566.00
2023-04-17T03:21:53.030Z,566.00
2023-04-17T03:22:53.054Z,565.00
2023-04-17T03:23:53.074Z,563.00
2023-04-17T03:24:53.168Z,562.00
2023-04-17T03:25:53.197Z,560.00
2023-04-17T03:26:53.230Z,560.00
2023-04-17T03:27:53.295Z,558.00
2023-04-17T03:28:53.329Z,556.00
2023-04-17T03:29:53.391Z,558.00
2023-04-17T03:30:53.445Z,558.00
2023-04-17T03:31:53.506Z,556.00
2023-04-17T03:32:53.606Z,557.00
2023-04-17T03:33:53.588Z,555.00
2023-04-17T03:34:53.640Z,557.00
2023-04-17T03:35:53.705Z,560.00
2023-04-17T03:36:53.772Z,560.00
2023-04-17T03:37:53.819Z,560.00
2023-04-17T03:38:53.885Z,559.00
2023-04-17T03:39:53.881Z,558.00
2023-04-17T03:40:53.982Z,556.00
2023-04-17T03:41:54.012Z,556.00
2023-04-17T03:42:54.050Z,558.00
2023-04-17T03:43:54.095Z,557.00
2023-04-17T03:44:54.153Z,558.00
2023-04-17T03:45:54.186Z,559.00
2023-04-17T03:46:54.252Z,560.00
2023-04-17T03:47:54.385Z,560.00
2023-04-17T03:48:54.331Z,559.00
2023-04-17T03:49:54.366Z,561.00
2023-04-17T03:50:54.420Z,561.00
2023-04-17T03:51:54.466Z,563.00
2023-04-17T03:52:54.489Z,563.00
2023-04-17T03:53:54.559Z,562.00
2023-04-17T03:54:54.606Z,562.00
2023-04-17T03:55:54.616Z,565.00
2023-04-17T03:56:54.716Z,563.00
2023-04-17T03:57:54.726Z,560.00
2023-04-17T03:58:54.774Z,559.00
2023-04-17T03:59:54.816Z,556.00
2023-04-17T04:00:54.838Z,556.00
2023-04-17T04:01:54.926Z,556.00
2023-04-17T04:02:55.048Z,554.00
2023-04-17T04:03:55.131Z,552.00
2023-04-17T04:04:55.168Z,552.00
2023-04-17T04:05:55.061Z,551.00
2023-04-17T04:06:55.083Z,552.00
2023-04-17T04:07:55.145Z,553.00
2023-04-17T04:08:55.161Z,553.00
2023-04-17T04:09:56.220Z,551.00
2023-04-17T04:10:55.218Z,551.00
2023-04-17T04:11:55.253Z,549.00
2023-04-17T04:12:55.265Z,550.00
2023-04-17T04:13:55.313Z,548.00
2023-04-17T04:14:55.311Z,548.00
2023-04-17T04:15:55.432Z,547.00
2023-04-17T04:16:55.411Z,547.00
2023-04-17T04:17:55.446Z,552.00
2023-04-17T04:18:55.464Z,554.00
2023-04-17T04:19:55.481Z,552.00
2023-04-17T04:20:55.542Z,551.00
2023-04-17T04:21:55.604Z,551.00
2023-04-17T04:22:55.659Z,551.00
2023-04-17T04:23:55.674Z,552.00
2023-04-17T04:24:55.728Z,551.00
2023-04-17T04:25:55.813Z,549.00
2023-04-17T04:26:55.831Z,548.00
2023-04-17T04:27:55.885Z,547.00
2023-04-17T04:28:55.929Z,546.00
2023-04-17T04:29:55.939Z,548.00
2023-04-17T04:30:55.997Z,549.00
2023-04-17T04:31:56.101Z,551.00
2023-04-17T04:32:56.158Z,552.00
2023-04-17T04:33:56.114Z,553.00
2023-04-17T04:34:56.195Z,552.00
2023-04-17T04:35:56.281Z,552.00
2023-04-17T04:36:56.320Z,551.00
2023-04-17T04:37:56.366Z,552.00
2023-04-17T04:38:56.415Z,551.00
2023-04-17T04:39:56.480Z,551.00
2023-04-17T04:40:56.556Z,551.00
2023-04-17T04:41:56.585Z,553.00
2023-04-17T04:42:56.643Z,556.00
2023-04-17T04:43:56.709Z,558.00
2023-04-17T04:44:56.727Z,557.00
2023-04-17T04:45:56.797Z,556.00
2023-04-17T04:46:56.887Z,555.00
2023-04-17T04:47:56.921Z,553.00
2023-04-17T04:48:56.910Z,555.00
2023-04-17T04:49:56.966Z,557.00
2023-04-17T04:50:57.025Z,556.00
2023-04-17T04:51:57.015Z,555.00
2023-04-17T04:52:57.050Z,553.00
2023-04-17T04:53:57.128Z,556.00
2023-04-17T04:54:57.156Z,557.00
2023-04-17T04:55:57.177Z,556.00
2023-04-17T04:56:57.175Z,557.00
2023-04-17T04:57:57.166Z,557.00
2023-04-17T04:58:57.228Z,557.00
2023-04-17T04:59:57.197Z,558.00
2023-04-17T05:00:57.360Z,559.00
2023-04-17T05:01:57.351Z,559.00
2023-04-17T05:02:57.441Z,562.00
2023-04-17T05:03:57.421Z,562.00
2023-04-17T05:04:57.602Z,562.00
2023-04-17T05:05:57.456Z,563.00
2023-04-17T05:06:58.290Z,561.00
2023-04-17T05:07:57.455Z,561.00
2023-04-17T05:08:57.507Z,559.00
2023-04-17T05:09:57.543Z,559.00
2023-04-17T05:10:57.647Z,556.00
2023-04-17T05:11:57.684Z,554.00
2023-04-17T05:12:57.745Z,554.00
2023-04-17T05:13:57.777Z,552.00
2023-04-17T05:14:57.808Z,553.00
2023-04-17T05:16:00.274Z,553.00
2023-04-17T05:16:58.891Z,554.00
2023-04-17T05:17:57.933Z,557.00
2023-04-17T05:18:57.875Z,556.00
2023-04-17T05:19:57.821Z,559.00
2023-04-17T05:20:57.851Z,561.00
2023-04-17T05:21:57.869Z,562.00
2023-04-17T05:22:57.839Z,563.00
2023-04-17T05:23:57.849Z,565.00
2023-04-17T05:24:57.823Z,563.00
2023-04-17T05:25:57.868Z,562.00
2023-04-17T05:26:57.862Z,561.00
2023-04-17T05:27:57.897Z,563.00
2023-04-17T05:28:57.959Z,564.00
2023-04-17T05:29:58.038Z,563.00
2023-04-17T05:30:58.114Z,562.00
2023-04-17T05:31:58.183Z,564.00
2023-04-17T05:32:58.222Z,565.00
2023-04-17T05:33:58.244Z,564.00
2023-04-17T05:34:58.285Z,566.00
2023-04-17T05:35:58.310Z,565.00
2023-04-17T05:36:58.399Z,563.00
2023-04-17T05:37:58.386Z,565.00
2023-04-17T05:38:58.444Z,575.00
2023-04-17T05:39:58.516Z,581.00
2023-04-17T05:40:58.559Z,587.00
2023-04-17T05:41:58.579Z,593.00
2023-04-17T05:42:58.674Z,602.00
2023-04-17T05:43:58.749Z,626.00
2023-04-17T05:44:58.807Z,643.00
2023-04-17T05:45:59.413Z,661.00
2023-04-17T05:46:58.937Z,749.00
2023-04-17T05:47:59.030Z,763.00
2023-04-17T05:48:59.059Z,771.00
2023-04-17T05:49:59.093Z,788.00
2023-04-17T05:50:59.186Z,854.00
2023-04-17T05:51:59.247Z,870.00
2023-04-17T05:52:59.280Z,921.00
2023-04-17T05:53:59.331Z,946.00
2023-04-17T05:54:59.366Z,1033.00
2023-04-17T05:55:59.434Z,1036.00
2023-04-17T05:56:59.821Z,1158.00
2023-04-17T05:58:00.262Z,1204.00
2023-04-17T05:58:59.508Z,1224.00
2023-04-17T05:59:59.490Z,1246.00
2023-04-17T06:00:59.458Z,1323.00
2023-04-17T06:01:59.767Z,1344.00
2023-04-17T06:02:59.646Z,1355.00
2023-04-17T06:04:00.825Z,1377.00
2023-04-17T06:04:59.682Z,1471.00
2023-04-17T06:05:59.586Z,1494.00
2023-04-17T06:06:59.483Z,1511.00
2023-04-17T06:07:59.415Z,1530.00
2023-04-17T06:08:59.418Z,1552.00
2023-04-17T06:09:59.428Z,1562.00
2023-04-17T06:10:59.442Z,1649.00
2023-04-17T06:11:59.414Z,1656.00
2023-04-17T06:12:59.403Z,1664.00
2023-04-17T06:13:59.423Z,1672.00
2023-04-17T06:14:59.496Z,1687.00
2023-04-17T06:15:59.544Z,1703.00
2023-04-17T06:16:59.621Z,1725.00
2023-04-17T06:17:59.629Z,1767.00
2023-04-17T06:18:59.677Z,1792.00
2023-04-17T06:19:59.719Z,1821.00
2023-04-17T06:20:59.763Z,1832.00
2023-04-17T06:21:59.809Z,1841.00
2023-04-17T06:22:59.897Z,1866.00
2023-04-17T06:23:59.947Z,1920.00
2023-04-17T06:24:59.980Z,1934.00
2023-04-17T06:26:00.027Z,1948.00
2023-04-17T06:27:00.027Z,1959.00
2023-04-17T06:28:00.092Z,1962.00
2023-04-17T06:29:00.144Z,1975.00
2023-04-17T06:30:00.220Z,1986.00
2023-04-17T06:31:00.302Z,1995.00
2023-04-17T06:32:00.240Z,2014.00
2023-04-17T06:33:00.360Z,2041.00
2023-04-17T06:34:00.324Z,2123.00
2023-04-17T06:35:00.369Z,2147.00
2023-04-17T06:36:00.396Z,2159.00
2023-04-17T06:37:00.435Z,2178.00
2023-04-17T06:38:00.485Z,2195.00
2023-04-17T06:39:00.487Z,2207.00
2023-04-17T06:40:00.567Z,2222.00
2023-04-17T06:41:00.594Z,2242.00
2023-04-17T06:42:00.653Z,2254.00
2023-04-17T06:43:00.672Z,2271.00
2023-04-17T06:44:00.701Z,2292.00
2023-04-17T06:45:00.749Z,2327.00
2023-04-17T06:46:00.808Z,2347.00
2023-04-17T06:47:02.922Z,2369.00
2023-04-17T06:48:00.928Z,2386.00
2023-04-17T06:49:00.882Z,2398.00
2023-04-17T06:50:00.945Z,2404.00
2023-04-17T06:51:00.980Z,2309.00
2023-04-17T06:52:01.350Z,2331.00
2023-04-17T06:53:01.097Z,2340.00
2023-04-17T06:54:01.111Z,2350.00
2023-04-17T06:55:01.185Z,2363.00
2023-04-17T06:56:01.202Z,2378.00
2023-04-17T06:57:01.214Z,2410.00
2023-04-17T06:58:01.280Z,2424.00
2023-04-17T06:59:02.867Z,2438.00
2023-04-17T07:00:01.338Z,2463.00
2023-04-17T07:01:01.404Z,2479.00
2023-04-17T07:02:01.507Z,2491.00
2023-04-17T07:03:01.443Z,2499.00
2023-04-17T07:04:01.592Z,2512.00
2023-04-17T07:05:01.494Z,2515.00
2023-04-17T07:06:01.540Z,2522.00
2023-04-17T07:07:01.845Z,2529.00
2023-04-17T07:08:01.595Z,2553.00
2023-04-17T07:09:01.620Z,2564.00
2023-04-17T07:10:01.653Z,2576.00
2023-04-17T07:11:01.627Z,2589.00
2023-04-17T07:12:01.674Z,2639.00
2023-04-17T07:13:01.790Z,2649.00
2023-04-17T07:14:01.775Z,2665.00
2023-04-17T07:15:01.951Z,2680.00
2023-04-17T07:16:01.931Z,2694.00
2023-04-17T07:17:01.850Z,2716.00
2023-04-17T07:18:03.440Z,2736.00
2023-04-17T07:19:01.834Z,2747.00
2023-04-17T07:20:01.851Z,2765.00
2023-04-17T07:21:01.896Z,2794.00
2023-04-17T07:22:01.931Z,2819.00
2023-04-17T07:23:01.875Z,2836.00
2023-04-17T07:24:01.935Z,2855.00
2023-04-17T07:25:01.935Z,2877.00
2023-04-17T07:26:01.957Z,2896.00
2023-04-17T07:27:02.335Z,2914.00
2023-04-17T07:28:03.292Z,2930.00
2023-04-17T07:29:01.984Z,2949.00
2023-04-17T07:30:01.983Z,2959.00
2023-04-17T07:31:02.022Z,2970.00
2023-04-17T07:32:02.070Z,2982.00
2023-04-17T07:33:02.127Z,2991.00
2023-04-17T07:34:01.986Z,3003.00
2023-04-17T07:35:02.019Z,3019.00
2023-04-17T07:36:02.006Z,3063.00
2023-04-17T07:37:02.008Z,3079.00
2023-04-17T07:38:02.024Z,3079.00
2023-04-17T07:39:02.002Z,3087.00
2023-04-17T07:40:01.972Z,3101.00
2023-04-17T07:41:02.010Z,3150.00
2023-04-17T07:42:02.418Z,3173.00
2023-04-17T07:43:02.345Z,3170.00
2023-04-17T07:44:01.989Z,3158.00
2023-04-17T07:45:02.033Z,3138.00
2023-04-17T07:46:02.028Z,3053.00
2023-04-17T07:47:02.039Z,3027.00
2023-04-17T07:48:02.048Z,3031.00
2023-04-17T07:49:01.949Z,3029.00
2023-04-17T07:50:02.100Z,3008.00
2023-04-17T07:51:02.016Z,2886.00
2023-04-17T07:52:02.043Z,2064.00
2023-04-17T07:53:02.031Z,1614.00
2023-04-17T07:54:02.109Z,1456.00
2023-04-17T07:55:02.172Z,1186.00
2023-04-17T07:56:02.178Z,1071.00
2023-04-17T07:57:02.178Z,1077.00
2023-04-17T07:58:02.174Z,1154.00
2023-04-17T07:59:02.225Z,1116.00
2023-04-17T08:00:02.322Z,1172.00
2023-04-17T08:01:02.341Z,987.00
2023-04-17T08:02:02.445Z,951.00
2023-04-17T08:03:02.753Z,917.00
2023-04-17T08:04:02.908Z,876.00
2023-04-17T08:05:02.640Z,866.00
2023-04-17T08:06:02.429Z,917.00
2023-04-17T08:07:02.498Z,975.00
2023-04-17T08:08:02.541Z,1098.00
2023-04-17T08:09:02.577Z,1147.00
2023-04-17T08:10:02.628Z,1169.00
2023-04-17T08:11:02.641Z,1182.00
2023-04-17T08:12:02.717Z,1217.00
2023-04-17T08:13:02.742Z,1243.00
2023-04-17T08:14:02.704Z,1263.00
2023-04-17T08:15:02.694Z,1284.00
2023-04-17T08:16:02.776Z,1305.00
2023-04-17T08:17:02.897Z,1331.00
2023-04-17T08:18:02.953Z,1373.00
2023-04-17T08:19:02.900Z,1396.00
2023-04-17T08:20:02.960Z,1431.00
2023-04-17T08:21:03.043Z,1464.00
2023-04-17T08:22:03.075Z,1483.00
2023-04-17T08:23:03.092Z,1515.00
2023-04-17T08:24:03.158Z,1539.00
2023-04-17T08:25:03.179Z,1557.00
2023-04-17T08:26:03.257Z,1583.00
2023-04-17T08:27:03.305Z,1606.00
2023-04-17T08:28:03.325Z,1626.00
2023-04-17T08:29:03.358Z,1659.00
2023-04-17T08:30:03.405Z,1680.00
2023-04-17T08:31:03.488Z,1696.00
2023-04-17T08:32:14.004Z,1715.00
2023-04-17T08:33:04.457Z,1746.00
2023-04-17T08:34:13.622Z,1786.00
2023-04-17T08:35:04.422Z,1803.00
2023-04-17T08:36:04.276Z,1824.00
2023-04-17T08:37:03.874Z,1840.00
2023-04-17T08:38:03.386Z,1856.00
2023-04-17T08:39:03.457Z,1866.00
2023-04-17T08:40:03.363Z,1878.00
2023-04-17T08:41:03.400Z,1886.00
2023-04-17T08:42:03.363Z,1812.00
2023-04-17T08:43:03.382Z,1750.00
2023-04-17T08:44:03.357Z,1768.00
2023-04-17T08:45:03.376Z,1799.00
2023-04-17T08:46:03.367Z,1812.00
2023-04-17T08:47:03.296Z,1748.00
2023-04-17T08:48:03.385Z,1817.00
2023-04-17T08:49:03.287Z,1827.00
2023-04-17T08:50:03.307Z,1935.00
2023-04-17T08:51:03.265Z,1942.00
2023-04-17T08:52:03.337Z,1640.00
2023-04-17T08:53:03.412Z,1747.00
2023-04-17T08:54:03.404Z,1854.00
2023-04-17T08:55:03.462Z,1871.00
2023-04-17T08:56:04.141Z,1898.00
2023-04-17T08:57:03.570Z,1893.00
2023-04-17T08:58:03.619Z,1891.00
2023-04-17T08:59:03.646Z,1885.00
2023-04-17T09:00:03.685Z,1853.00
2023-04-17T09:01:03.778Z,1825.00
2023-04-17T09:02:03.936Z,1803.00
2023-04-17T09:03:04.091Z,1783.00
2023-04-17T09:04:04.060Z,1769.00
2023-04-17T09:05:04.047Z,1754.00
2023-04-17T09:06:03.992Z,1736.00
2023-04-17T09:07:04.028Z,1733.00
2023-04-17T09:08:04.105Z,1697.00
2023-04-17T09:09:04.178Z,1645.00
2023-04-17T09:10:04.216Z,1617.00
2023-04-17T09:11:04.292Z,1597.00
2023-04-17T09:12:04.317Z,1589.00
2023-04-17T09:13:04.417Z,1487.00
2023-04-17T09:14:04.455Z,1347.00
2023-04-17T09:15:04.571Z,1364.00
2023-04-17T09:16:04.676Z,1375.00
2023-04-17T09:17:04.668Z,1308.00
2023-04-17T09:18:04.725Z,1243.00
2023-04-17T09:19:04.780Z,1115.00
2023-04-17T09:20:04.792Z,1023.00
2023-04-17T09:21:04.825Z,1130.00
2023-04-17T09:22:04.809Z,1027.00
2023-04-17T09:23:04.826Z,972.00
2023-04-17T09:24:04.790Z,1120.00
2023-04-17T09:25:04.816Z,1156.00
2023-04-17T09:26:04.802Z,1222.00
2023-04-17T09:27:04.802Z,1213.00
2023-04-17T09:28:04.794Z,1208.00
2023-04-17T09:29:04.903Z,1190.00
2023-04-17T09:30:04.790Z,1179.00
2023-04-17T09:31:04.841Z,1176.00
2023-04-17T09:32:04.837Z,1163.00
2023-04-17T09:33:04.976Z,1153.00
2023-04-17T09:34:04.828Z,1145.00
2023-04-17T09:35:04.822Z,1104.00
2023-04-17T09:36:04.881Z,1102.00
2023-04-17T09:37:04.919Z,1082.00
2023-04-17T09:38:04.911Z,1104.00
2023-04-17T09:39:04.928Z,1117.00
2023-04-17T09:40:05.296Z,1125.00
2023-04-17T09:41:05.041Z,1135.00
2023-04-17T09:42:05.071Z,1139.00
2023-04-17T09:43:06.132Z,1144.00
2023-04-17T09:44:05.167Z,1161.00
2023-04-17T09:45:05.226Z,1193.00
2023-04-17T09:46:05.275Z,1195.00
2023-04-17T09:47:05.404Z,1201.00
2023-04-17T09:48:05.927Z,1207.00
2023-04-17T09:49:05.501Z,1213.00
2023-04-17T09:50:05.474Z,1218.00
2023-04-17T09:51:05.565Z,1222.00
2023-04-17T09:52:05.623Z,1229.00
2023-04-17T09:53:05.756Z,1232.00
2023-04-17T09:54:05.746Z,1236.00
2023-04-17T09:55:05.804Z,1240.00
2023-04-17T09:56:05.846Z,1243.00
2023-04-17T09:57:05.904Z,1246.00
2023-04-17T09:58:05.975Z,1250.00
2023-04-17T09:59:06.044Z,1253.00
2023-04-17T10:00:06.068Z,1253.00
2023-04-17T10:01:06.206Z,1253.00
2023-04-17T10:02:06.279Z,1255.00
2023-04-17T10:03:06.374Z,1257.00
2023-04-17T10:04:06.473Z,1262.00
2023-04-17T10:05:06.342Z,1260.00
2023-04-17T10:06:06.405Z,1260.00
2023-04-17T10:07:06.483Z,1261.00
2023-04-17T10:08:06.525Z,1263.00
2023-04-17T10:09:06.596Z,1263.00
2023-04-17T10:10:06.637Z,1263.00
2023-04-17T10:11:06.724Z,1260.00
2023-04-17T10:12:06.769Z,1258.00
2023-04-17T10:13:06.816Z,1258.00
2023-04-17T10:14:06.855Z,1259.00
2023-04-17T10:15:06.904Z,1261.00
2023-04-17T10:16:07.061Z,1264.00
2023-04-17T10:17:07.064Z,1269.00
2023-04-17T10:18:07.475Z,1272.00
2023-04-17T10:19:07.168Z,1270.00
2023-04-17T10:20:07.204Z,1276.00
2023-04-17T10:21:07.297Z,1279.00
2023-04-17T10:22:07.401Z,1286.00
2023-04-17T10:23:07.378Z,1287.00
2023-04-17T10:24:07.477Z,1289.00
2023-04-17T10:25:07.545Z,1293.00
2023-04-17T10:26:09.477Z,1296.00
2023-04-17T10:27:08.212Z,1297.00
2023-04-17T10:28:07.694Z,1298.00
2023-04-17T10:29:07.731Z,1300.00
2023-04-17T10:30:07.815Z,1304.00
2023-04-17T10:31:07.824Z,1309.00
2023-04-17T10:32:07.995Z,1309.00
2023-04-17T10:33:09.639Z,1310.00
2023-04-17T10:34:08.072Z,1311.00
2023-04-17T10:35:08.067Z,1313.00
2023-04-17T10:36:08.118Z,1315.00
2023-04-17T10:37:08.176Z,1320.00
2023-04-17T10:38:08.441Z,1323.00
2023-04-17T10:39:08.300Z,1326.00
2023-04-17T10:40:08.346Z,1329.00
2023-04-17T10:41:08.399Z,1329.00
2023-04-17T10:42:08.434Z,1329.00
2023-04-17T10:43:08.485Z,1328.00
2023-04-17T10:44:08.572Z,1331.00
2023-04-17T10:45:08.586Z,1332.00
2023-04-17T10:46:08.726Z,1331.00
2023-04-17T10:47:08.753Z,1333.00
2023-04-17T10:48:08.895Z,1334.00
2023-04-17T10:49:08.932Z,1336.00
2023-04-17T10:50:08.925Z,1336.00
2023-04-17T10:51:09.005Z,1336.00
2023-04-17T10:52:09.003Z,1337.00
2023-04-17T10:53:09.088Z,1341.00
2023-04-17T10:54:09.088Z,1344.00
2023-04-17T10:55:09.181Z,1344.00
2023-04-17T10:56:09.216Z,1344.00
2023-04-17T10:57:09.281Z,1344.00
2023-04-17T10:58:09.320Z,1345.00
2023-04-17T10:59:09.390Z,1346.00
2023-04-17T11:00:09.462Z,1346.00
2023-04-17T11:01:09.617Z,1346.00
2023-04-17T11:02:09.656Z,1347.00
2023-04-17T11:03:10.031Z,1350.00
2023-04-17T11:04:09.647Z,1350.00
2023-04-17T11:05:09.709Z,1352.00
2023-04-17T11:06:09.798Z,1353.00
2023-04-17T11:07:09.816Z,1352.00
2023-04-17T11:08:09.873Z,1350.00
2023-04-17T11:09:09.934Z,1350.00
2023-04-17T11:10:09.984Z,1352.00
2023-04-17T11:11:10.049Z,1348.00
2023-04-17T11:12:10.101Z,1348.00
2023-04-17T11:13:10.214Z,1347.00
2023-04-17T11:14:12.029Z,1347.00
2023-04-17T11:15:10.232Z,1343.00
2023-04-17T11:16:10.226Z,1341.00
2023-04-17T11:17:10.314Z,1337.00
2023-04-17T11:18:10.252Z,1335.00
2023-04-17T11:19:10.492Z,1331.00
2023-04-17T11:20:10.218Z,1330.00
2023-04-17T11:21:10.181Z,1327.00
2023-04-17T11:22:10.213Z,1325.00
2023-04-17T11:23:10.234Z,1326.00
2023-04-17T11:24:10.164Z,1327.00
2023-04-17T11:25:10.177Z,1326.00
2023-04-17T11:26:10.163Z,1322.00
2023-04-17T11:27:10.186Z,1322.00
2023-04-17T11:28:10.161Z,1323.00
2023-04-17T11:29:10.356Z,1326.00
2023-04-17T11:30:10.167Z,1326.00
2023-04-17T11:31:10.375Z,1326.00
2023-04-17T11:32:10.184Z,1327.00
2023-04-17T11:33:10.515Z,1328.00
2023-04-17T11:34:10.209Z,1325.00
2023-04-17T11:35:10.078Z,1323.00
2023-04-17T11:36:10.080Z,1321.00
2023-04-17T11:37:10.069Z,1319.00
2023-04-17T11:38:10.109Z,1321.00
2023-04-17T11:39:10.118Z,1319.00
2023-04-17T11:40:10.060Z,1318.00
2023-04-17T11:41:10.055Z,1320.00
2023-04-17T11:42:10.038Z,1321.00
2023-04-17T11:43:10.029Z,1319.00
2023-04-17T11:44:10.040Z,1314.00
2023-04-17T11:45:10.009Z,1312.00
2023-04-17T11:46:10.088Z,1310.00
2023-04-17T11:47:10.019Z,1314.00
2023-04-17T11:48:10.452Z,1314.00
2023-04-17T11:49:10.360Z,1314.00
2023-04-17T11:50:10.133Z,1314.00
2023-04-17T11:51:10.200Z,1312.00
2023-04-17T11:52:10.244Z,1312.00
2023-04-17T11:53:10.305Z,1310.00
2023-04-17T11:54:10.469Z,1312.00
2023-04-17T11:55:10.385Z,1312.00
2023-04-17T11:56:10.446Z,1312.00
2023-04-17T11:57:10.492Z,1314.00
2023-04-17T11:58:10.548Z,1317.00
2023-04-17T11:59:10.835Z,1317.00
2023-04-17T12:00:10.749Z,1316.00
2023-04-17T12:01:10.695Z,1315.00
2023-04-17T12:02:10.782Z,1314.00
2023-04-17T12:03:10.897Z,1313.00
2023-04-17T12:04:11.457Z,1314.00
2023-04-17T12:05:11.085Z,1313.00
2023-04-17T12:06:10.952Z,1313.00
2023-04-17T12:07:10.974Z,1310.00
2023-04-17T12:08:11.024Z,1310.00
2023-04-17T12:09:11.283Z,1310.00
2023-04-17T12:10:11.126Z,1309.00
2023-04-17T12:11:11.939Z,1310.00
2023-04-17T12:12:11.258Z,1311.00
2023-04-17T12:13:11.282Z,1310.00
2023-04-17T12:14:11.758Z,1309.00
2023-04-17T12:15:11.394Z,1310.00
2023-04-17T12:16:11.456Z,1308.00
2023-04-17T12:17:11.505Z,1305.00